sensor_id;sensor_type;location;lat;lon;timestamp;temperature;humidity
32534;DHT22;18973;48.580;8.912;2022-12-26T00:01:46;9.40;99.90
32534;DHT22;18973;48.580;8.912;2022-12-26T00:04:13;9.40;99.90
32534;DHT22;18973;48.580;8.912;2022-12-26T00:06:38;9.40;99.90
32534;DHT22;18973;48.580;8.912;2022-12-26T00:09:05;9.40;99.90
32534;DHT22;18973;48.580;8.912;2022-12-26T00:11:32;9.40;99.90
32534;DHT22;18973;48.580;8.912;2022-12-26T00:14:12;9.40;99.90
32534;DHT22;18973;48.580;8.912;2022-12-26T00:16:40;9.50;99.90
32534;DHT22;18973;48.580;8.912;2022-12-26T00:19:06;9.50;99.90
32534;DHT22;18973;48.580;8.912;2022-12-26T00:21:32;9.40;99.90
32534;DHT22;18973;48.580;8.912;2022-12-26T00:23:59;9.30;99.90
32534;DHT22;18973;48.580;8.912;2022-12-26T00:26:28;9.30;99.90
32534;DHT22;18973;48.580;8.912;2022-12-26T00:28:54;9.20;99.90
32534;DHT22;18973;48.580;8.912;2022-12-26T00:31:23;9.30;99.90
32534;DHT22;18973;48.580;8.912;2022-12-26T00:33:49;9.30;99.90
32534;DHT22;18973;48.580;8.912;2022-12-26T00:36:21;9.20;99.90
32534;DHT22;18973;48.580;8.912;2022-12-26T00:38:47;9.10;99.90
32534;DHT22;18973;48.580;8.912;2022-12-26T00:41:14;9.00;99.90
32534;DHT22;18973;48.580;8.912;2022-12-26T00:43:40;9.00;99.90
32534;DHT22;18973;48.580;8.912;2022-12-26T00:46:07;9.00;99.90
32534;DHT22;18973;48.580;8.912;2022-12-26T00:48:33;9.00;99.90
32534;DHT22;18973;48.580;8.912;2022-12-26T00:50:59;9.10;99.90
32534;DHT22;18973;48.580;8.912;2022-12-26T00:53:25;9.00;99.90
32534;DHT22;18973;48.580;8.912;2022-12-26T00:55:51;8.90;99.90
32534;DHT22;18973;48.580;8.912;2022-12-26T00:58:18;8.90;99.90
32534;DHT22;18973;48.580;8.912;2022-12-26T01:00:44;9.00;99.90
32534;DHT22;18973;48.580;8.912;2022-12-26T01:03:11;9.00;99.90
32534;DHT22;18973;48.580;8.912;2022-12-26T01:05:41;8.90;99.90
32534;DHT22;18973;48.580;8.912;2022-12-26T01:08:07;8.90;99.90
32534;DHT22;18973;48.580;8.912;2022-12-26T01:10:32;8.90;99.90
32534;DHT22;18973;48.580;8.912;2022-12-26T01:12:58;8.90;99.90
32534;DHT22;18973;48.580;8.912;2022-12-26T01:15:24;8.90;99.90
32534;DHT22;18973;48.580;8.912;2022-12-26T01:17:49;8.80;99.90
32534;DHT22;18973;48.580;8.912;2022-12-26T01:20:15;8.80;99.90
32534;DHT22;18973;48.580;8.912;2022-12-26T01:22:41;8.80;99.90
32534;DHT22;18973;48.580;8.912;2022-12-26T01:25:07;8.90;99.90
32534;DHT22;18973;48.580;8.912;2022-12-26T01:27:32;9.00;99.90
32534;DHT22;18973;48.580;8.912;2022-12-26T01:29:58;9.10;99.90
32534;DHT22;18973;48.580;8.912;2022-12-26T01:32:24;9.10;99.90
32534;DHT22;18973;48.580;8.912;2022-12-26T01:34:49;9.20;99.90
32534;DHT22;18973;48.580;8.912;2022-12-26T01:37:16;9.30;99.90
32534;DHT22;18973;48.580;8.912;2022-12-26T01:39:42;9.20;99.90
32534;DHT22;18973;48.580;8.912;2022-12-26T01:42:12;9.10;99.90
32534;DHT22;18973;48.580;8.912;2022-12-26T01:47:46;9.00;99.90
32534;DHT22;18973;48.580;8.912;2022-12-26T01:53:04;8.90;99.90
32534;DHT22;18973;48.580;8.912;2022-12-26T01:55:33;8.80;99.90
32534;DHT22;18973;48.580;8.912;2022-12-26T01:58:04;8.70;99.90
32534;DHT22;18973;48.580;8.912;2022-12-26T02:00:32;8.80;99.90
32534;DHT22;18973;48.580;8.912;2022-12-26T02:02:58;8.90;99.90
32534;DHT22;18973;48.580;8.912;2022-12-26T02:05:42;9.10;99.90
32534;DHT22;18973;48.580;8.912;2022-12-26T02:08:18;9.10;99.90
32534;DHT22;18973;48.580;8.912;2022-12-26T02:10:59;9.10;99.90
32534;DHT22;18973;48.580;8.912;2022-12-26T02:13:28;9.00;99.90
32534;DHT22;18973;48.580;8.912;2022-12-26T02:15:55;9.00;99.90
32534;DHT22;18973;48.580;8.912;2022-12-26T02:18:21;9.00;99.90
32534;DHT22;18973;48.580;8.912;2022-12-26T02:21:39;9.00;99.90
32534;DHT22;18973;48.580;8.912;2022-12-26T02:49:14;8.50;99.90
32534;DHT22;18973;48.580;8.912;2022-12-26T02:51:59;8.60;99.90
32534;DHT22;18973;48.580;8.912;2022-12-26T02:55:03;8.60;99.90
32534;DHT22;18973;48.580;8.912;2022-12-26T03:00:41;8.60;99.90
32534;DHT22;18973;48.580;8.912;2022-12-26T03:03:39;8.70;99.90
32534;DHT22;18973;48.580;8.912;2022-12-26T03:06:26;8.70;99.90
32534;DHT22;18973;48.580;8.912;2022-12-26T03:09:19;8.70;99.90
32534;DHT22;18973;48.580;8.912;2022-12-26T03:15:14;8.70;99.90
32534;DHT22;18973;48.580;8.912;2022-12-26T03:17:46;8.70;99.90
32534;DHT22;18973;48.580;8.912;2022-12-26T03:20:23;8.70;99.90
32534;DHT22;18973;48.580;8.912;2022-12-26T03:25:36;8.70;99.90
32534;DHT22;18973;48.580;8.912;2022-12-26T03:28:22;8.70;99.90
32534;DHT22;18973;48.580;8.912;2022-12-26T03:30:49;8.70;99.90
32534;DHT22;18973;48.580;8.912;2022-12-26T03:33:16;8.70;99.90
32534;DHT22;18973;48.580;8.912;2022-12-26T03:36:02;8.70;99.90
32534;DHT22;18973;48.580;8.912;2022-12-26T03:38:36;8.60;99.90
32534;DHT22;18973;48.580;8.912;2022-12-26T03:41:20;8.70;99.90
32534;DHT22;18973;48.580;8.912;2022-12-26T03:47:23;8.80;99.90
32534;DHT22;18973;48.580;8.912;2022-12-26T03:53:36;8.80;99.90
32534;DHT22;18973;48.580;8.912;2022-12-26T03:59:46;8.80;99.90
32534;DHT22;18973;48.580;8.912;2022-12-26T04:02:32;8.90;99.90
32534;DHT22;18973;48.580;8.912;2022-12-26T04:05:19;8.70;99.90
32534;DHT22;18973;48.580;8.912;2022-12-26T04:08:16;8.70;99.90
32534;DHT22;18973;48.580;8.912;2022-12-26T04:11:02;8.70;99.90
32534;DHT22;18973;48.580;8.912;2022-12-26T04:14:04;8.70;99.90
32534;DHT22;18973;48.580;8.912;2022-12-26T04:17:11;8.70;99.90
32534;DHT22;18973;48.580;8.912;2022-12-26T04:20:36;8.60;99.90
32534;DHT22;18973;48.580;8.912;2022-12-26T04:23:13;8.70;99.90
32534;DHT22;18973;48.580;8.912;2022-12-26T04:26:10;8.80;99.90
32534;DHT22;18973;48.580;8.912;2022-12-26T04:28:55;8.90;99.90
32534;DHT22;18973;48.580;8.912;2022-12-26T04:37:55;9.10;99.90
32534;DHT22;18973;48.580;8.912;2022-12-26T04:40:44;9.00;99.90
32534;DHT22;18973;48.580;8.912;2022-12-26T04:43:32;9.10;99.90
32534;DHT22;18973;48.580;8.912;2022-12-26T04:46:20;9.00;99.90
32534;DHT22;18973;48.580;8.912;2022-12-26T04:48:48;9.00;99.90
32534;DHT22;18973;48.580;8.912;2022-12-26T04:51:33;9.00;99.90
32534;DHT22;18973;48.580;8.912;2022-12-26T04:53:59;9.00;99.90
32534;DHT22;18973;48.580;8.912;2022-12-26T04:56:25;9.10;99.90
32534;DHT22;18973;48.580;8.912;2022-12-26T04:58:51;9.10;99.90
32534;DHT22;18973;48.580;8.912;2022-12-26T05:01:16;9.10;99.90
32534;DHT22;18973;48.580;8.912;2022-12-26T05:04:01;9.20;99.90
32534;DHT22;18973;48.580;8.912;2022-12-26T05:06:45;9.20;99.90
32534;DHT22;18973;48.580;8.912;2022-12-26T05:09:29;9.30;99.90
32534;DHT22;18973;48.580;8.912;2022-12-26T05:12:03;9.30;99.90
32534;DHT22;18973;48.580;8.912;2022-12-26T05:14:29;9.30;99.90
32534;DHT22;18973;48.580;8.912;2022-12-26T05:16:59;9.30;99.90
32534;DHT22;18973;48.580;8.912;2022-12-26T05:19:44;9.30;99.90
32534;DHT22;18973;48.580;8.912;2022-12-26T05:22:30;9.40;99.90
32534;DHT22;18973;48.580;8.912;2022-12-26T05:25:17;9.30;99.90
32534;DHT22;18973;48.580;8.912;2022-12-26T05:28:02;9.20;99.90
32534;DHT22;18973;48.580;8.912;2022-12-26T05:30:46;9.10;99.90
32534;DHT22;18973;48.580;8.912;2022-12-26T05:33:12;9.10;99.90
32534;DHT22;18973;48.580;8.912;2022-12-26T05:35:57;9.00;99.90
32534;DHT22;18973;48.580;8.912;2022-12-26T05:38:23;9.00;99.90
32534;DHT22;18973;48.580;8.912;2022-12-26T05:40:49;9.00;99.90
32534;DHT22;18973;48.580;8.912;2022-12-26T05:43:14;8.90;99.90
32534;DHT22;18973;48.580;8.912;2022-12-26T05:45:40;9.00;99.90
32534;DHT22;18973;48.580;8.912;2022-12-26T05:48:06;8.90;99.90
32534;DHT22;18973;48.580;8.912;2022-12-26T05:50:31;9.00;99.90
32534;DHT22;18973;48.580;8.912;2022-12-26T05:52:58;9.10;99.90
32534;DHT22;18973;48.580;8.912;2022-12-26T05:55:24;9.10;99.90
32534;DHT22;18973;48.580;8.912;2022-12-26T05:57:50;9.20;99.90
32534;DHT22;18973;48.580;8.912;2022-12-26T06:00:16;9.20;99.90
32534;DHT22;18973;48.580;8.912;2022-12-26T06:02:42;9.10;99.90
32534;DHT22;18973;48.580;8.912;2022-12-26T06:05:08;9.20;99.90
32534;DHT22;18973;48.580;8.912;2022-12-26T06:07:34;9.20;99.90
32534;DHT22;18973;48.580;8.912;2022-12-26T06:09:59;9.20;99.90
32534;DHT22;18973;48.580;8.912;2022-12-26T06:12:25;9.20;99.90
32534;DHT22;18973;48.580;8.912;2022-12-26T06:14:51;9.30;99.90
32534;DHT22;18973;48.580;8.912;2022-12-26T06:17:16;9.30;99.90
32534;DHT22;18973;48.580;8.912;2022-12-26T06:19:42;9.40;99.90
32534;DHT22;18973;48.580;8.912;2022-12-26T06:22:08;9.40;99.90
32534;DHT22;18973;48.580;8.912;2022-12-26T06:24:33;9.40;99.90
32534;DHT22;18973;48.580;8.912;2022-12-26T06:26:59;9.40;99.90
32534;DHT22;18973;48.580;8.912;2022-12-26T06:29:25;9.50;99.90
32534;DHT22;18973;48.580;8.912;2022-12-26T06:31:50;9.60;99.90
32534;DHT22;18973;48.580;8.912;2022-12-26T06:34:16;9.60;99.90
32534;DHT22;18973;48.580;8.912;2022-12-26T06:36:43;9.50;99.90
32534;DHT22;18973;48.580;8.912;2022-12-26T06:39:09;9.50;99.90
32534;DHT22;18973;48.580;8.912;2022-12-26T06:41:34;9.50;99.90
32534;DHT22;18973;48.580;8.912;2022-12-26T06:44:00;9.60;99.90
32534;DHT22;18973;48.580;8.912;2022-12-26T06:46:26;9.70;99.90
32534;DHT22;18973;48.580;8.912;2022-12-26T06:48:52;9.70;99.90
32534;DHT22;18973;48.580;8.912;2022-12-26T06:51:22;9.60;99.90
32534;DHT22;18973;48.580;8.912;2022-12-26T06:53:49;9.60;99.90
32534;DHT22;18973;48.580;8.912;2022-12-26T06:56:21;9.60;99.90
32534;DHT22;18973;48.580;8.912;2022-12-26T06:58:47;9.70;99.90
32534;DHT22;18973;48.580;8.912;2022-12-26T07:01:17;9.80;99.90
32534;DHT22;18973;48.580;8.912;2022-12-26T07:03:46;9.90;99.90
32534;DHT22;18973;48.580;8.912;2022-12-26T07:06:21;9.90;99.90
32534;DHT22;18973;48.580;8.912;2022-12-26T07:08:48;9.90;99.90
32534;DHT22;18973;48.580;8.912;2022-12-26T07:11:22;9.90;99.90
32534;DHT22;18973;48.580;8.912;2022-12-26T07:13:48;9.90;99.90
32534;DHT22;18973;48.580;8.912;2022-12-26T07:16:13;9.80;99.90
32534;DHT22;18973;48.580;8.912;2022-12-26T07:18:39;9.80;99.90
32534;DHT22;18973;48.580;8.912;2022-12-26T07:21:06;9.90;99.90
32534;DHT22;18973;48.580;8.912;2022-12-26T07:23:32;9.80;99.90
32534;DHT22;18973;48.580;8.912;2022-12-26T07:25:58;9.90;99.90
32534;DHT22;18973;48.580;8.912;2022-12-26T07:28:24;9.90;99.90
32534;DHT22;18973;48.580;8.912;2022-12-26T07:30:50;9.90;99.90
32534;DHT22;18973;48.580;8.912;2022-12-26T07:33:16;10.10;99.90
32534;DHT22;18973;48.580;8.912;2022-12-26T07:35:42;10.20;99.90
32534;DHT22;18973;48.580;8.912;2022-12-26T07:38:08;10.30;99.90
32534;DHT22;18973;48.580;8.912;2022-12-26T07:40:34;10.40;99.90
32534;DHT22;18973;48.580;8.912;2022-12-26T07:43:00;10.50;99.90
32534;DHT22;18973;48.580;8.912;2022-12-26T07:45:26;10.30;99.90
32534;DHT22;18973;48.580;8.912;2022-12-26T07:47:56;10.20;99.90
32534;DHT22;18973;48.580;8.912;2022-12-26T07:50:26;10.30;99.90
32534;DHT22;18973;48.580;8.912;2022-12-26T07:52:52;10.30;99.90
32534;DHT22;18973;48.580;8.912;2022-12-26T07:55:18;10.20;99.90
32534;DHT22;18973;48.580;8.912;2022-12-26T07:57:51;10.10;99.90
32534;DHT22;18973;48.580;8.912;2022-12-26T08:00:18;10.00;99.90
32534;DHT22;18973;48.580;8.912;2022-12-26T08:02:47;9.90;99.90
32534;DHT22;18973;48.580;8.912;2022-12-26T08:05:14;10.00;99.90
32534;DHT22;18973;48.580;8.912;2022-12-26T08:07:40;10.10;99.90
32534;DHT22;18973;48.580;8.912;2022-12-26T08:10:06;9.90;99.90
32534;DHT22;18973;48.580;8.912;2022-12-26T08:12:32;10.00;99.90
32534;DHT22;18973;48.580;8.912;2022-12-26T08:14:58;10.00;99.90
32534;DHT22;18973;48.580;8.912;2022-12-26T08:17:24;9.90;99.90
32534;DHT22;18973;48.580;8.912;2022-12-26T08:19:50;9.90;99.90
32534;DHT22;18973;48.580;8.912;2022-12-26T08:22:15;9.90;99.90
32534;DHT22;18973;48.580;8.912;2022-12-26T08:24:41;10.00;99.90
32534;DHT22;18973;48.580;8.912;2022-12-26T08:27:07;10.00;99.90
32534;DHT22;18973;48.580;8.912;2022-12-26T08:29:33;10.00;99.90
32534;DHT22;18973;48.580;8.912;2022-12-26T08:31:58;9.90;99.90
32534;DHT22;18973;48.580;8.912;2022-12-26T08:34:24;9.80;99.90
32534;DHT22;18973;48.580;8.912;2022-12-26T08:36:50;9.80;99.90
32534;DHT22;18973;48.580;8.912;2022-12-26T08:39:17;9.80;99.90
32534;DHT22;18973;48.580;8.912;2022-12-26T08:41:43;9.90;99.90
32534;DHT22;18973;48.580;8.912;2022-12-26T08:44:09;9.80;99.90
32534;DHT22;18973;48.580;8.912;2022-12-26T08:46:35;9.70;99.90
32534;DHT22;18973;48.580;8.912;2022-12-26T08:49:01;9.60;99.90
32534;DHT22;18973;48.580;8.912;2022-12-26T08:51:27;9.50;99.90
32534;DHT22;18973;48.580;8.912;2022-12-26T08:53:53;9.50;99.90
32534;DHT22;18973;48.580;8.912;2022-12-26T08:56:24;9.30;99.90
32534;DHT22;18973;48.580;8.912;2022-12-26T08:58:50;9.40;99.90
32534;DHT22;18973;48.580;8.912;2022-12-26T09:01:19;9.40;99.90
32534;DHT22;18973;48.580;8.912;2022-12-26T09:03:45;9.30;99.90
32534;DHT22;18973;48.580;8.912;2022-12-26T09:06:13;9.30;99.90
32534;DHT22;18973;48.580;8.912;2022-12-26T09:08:41;9.30;99.90
32534;DHT22;18973;48.580;8.912;2022-12-26T09:11:10;9.40;99.90
32534;DHT22;18973;48.580;8.912;2022-12-26T09:13:36;9.50;99.90
32534;DHT22;18973;48.580;8.912;2022-12-26T09:16:08;9.40;99.90
32534;DHT22;18973;48.580;8.912;2022-12-26T09:18:35;9.30;99.90
32534;DHT22;18973;48.580;8.912;2022-12-26T09:21:02;9.30;99.90
32534;DHT22;18973;48.580;8.912;2022-12-26T09:23:28;9.30;99.90
32534;DHT22;18973;48.580;8.912;2022-12-26T09:25:54;9.30;99.90
32534;DHT22;18973;48.580;8.912;2022-12-26T09:28:20;9.40;99.90
32534;DHT22;18973;48.580;8.912;2022-12-26T09:30:46;9.40;99.90
32534;DHT22;18973;48.580;8.912;2022-12-26T09:33:12;9.60;99.90
32534;DHT22;18973;48.580;8.912;2022-12-26T09:35:41;9.50;99.90
32534;DHT22;18973;48.580;8.912;2022-12-26T09:38:06;9.60;99.90
32534;DHT22;18973;48.580;8.912;2022-12-26T09:40:52;9.60;99.90
32534;DHT22;18973;48.580;8.912;2022-12-26T09:43:32;9.70;99.90
32534;DHT22;18973;48.580;8.912;2022-12-26T09:49:17;9.80;99.90
32534;DHT22;18973;48.580;8.912;2022-12-26T09:51:47;9.90;99.90
32534;DHT22;18973;48.580;8.912;2022-12-26T09:54:18;9.90;99.90
32534;DHT22;18973;48.580;8.912;2022-12-26T09:56:49;9.90;99.90
32534;DHT22;18973;48.580;8.912;2022-12-26T09:59:20;10.00;99.90
32534;DHT22;18973;48.580;8.912;2022-12-26T10:01:51;10.00;99.90
32534;DHT22;18973;48.580;8.912;2022-12-26T10:04:24;10.00;99.90
32534;DHT22;18973;48.580;8.912;2022-12-26T10:09:40;9.90;99.90
32534;DHT22;18973;48.580;8.912;2022-12-26T10:23:01;9.90;99.90
32534;DHT22;18973;48.580;8.912;2022-12-26T10:25:38;9.90;99.90
32534;DHT22;18973;48.580;8.912;2022-12-26T10:28:14;9.80;99.90
32534;DHT22;18973;48.580;8.912;2022-12-26T10:30:41;9.80;99.90
32534;DHT22;18973;48.580;8.912;2022-12-26T10:33:24;9.80;99.90
32534;DHT22;18973;48.580;8.912;2022-12-26T10:35:52;9.80;99.90
32534;DHT22;18973;48.580;8.912;2022-12-26T10:38:29;9.90;99.90
32534;DHT22;18973;48.580;8.912;2022-12-26T10:41:30;9.90;99.90
32534;DHT22;18973;48.580;8.912;2022-12-26T10:44:00;9.90;99.90
32534;DHT22;18973;48.580;8.912;2022-12-26T10:46:42;10.00;99.90
32534;DHT22;18973;48.580;8.912;2022-12-26T10:49:10;10.10;99.90
32534;DHT22;18973;48.580;8.912;2022-12-26T10:51:37;10.10;99.90
32534;DHT22;18973;48.580;8.912;2022-12-26T10:54:07;10.10;99.90
32534;DHT22;18973;48.580;8.912;2022-12-26T10:56:35;10.20;99.90
32534;DHT22;18973;48.580;8.912;2022-12-26T10:59:03;10.00;99.90
32534;DHT22;18973;48.580;8.912;2022-12-26T11:01:33;10.10;99.90
32534;DHT22;18973;48.580;8.912;2022-12-26T11:04:22;10.10;99.90
32534;DHT22;18973;48.580;8.912;2022-12-26T11:06:48;10.10;99.90
32534;DHT22;18973;48.580;8.912;2022-12-26T11:11:56;10.10;99.90
32534;DHT22;18973;48.580;8.912;2022-12-26T11:14:26;10.20;99.90
32534;DHT22;18973;48.580;8.912;2022-12-26T11:16:56;10.20;99.90
32534;DHT22;18973;48.580;8.912;2022-12-26T11:19:27;10.30;99.90
32534;DHT22;18973;48.580;8.912;2022-12-26T11:21:53;10.50;99.90
32534;DHT22;18973;48.580;8.912;2022-12-26T11:24:19;10.50;99.90
32534;DHT22;18973;48.580;8.912;2022-12-26T11:26:45;10.50;99.90
32534;DHT22;18973;48.580;8.912;2022-12-26T11:29:16;10.50;99.90
32534;DHT22;18973;48.580;8.912;2022-12-26T11:31:56;10.50;99.90
32534;DHT22;18973;48.580;8.912;2022-12-26T11:34:44;10.50;99.90
32534;DHT22;18973;48.580;8.912;2022-12-26T11:37:27;10.60;99.90
32534;DHT22;18973;48.580;8.912;2022-12-26T11:39:55;10.60;99.90
32534;DHT22;18973;48.580;8.912;2022-12-26T11:42:22;10.50;99.90
32534;DHT22;18973;48.580;8.912;2022-12-26T11:44:50;10.50;99.90
32534;DHT22;18973;48.580;8.912;2022-12-26T11:47:25;10.50;99.90
32534;DHT22;18973;48.580;8.912;2022-12-26T11:50:11;10.50;99.90
32534;DHT22;18973;48.580;8.912;2022-12-26T11:55:35;11.80;99.90
32534;DHT22;18973;48.580;8.912;2022-12-26T12:03:35;11.80;99.90
32534;DHT22;18973;48.580;8.912;2022-12-26T12:17:34;10.70;99.90
32534;DHT22;18973;48.580;8.912;2022-12-26T12:20:23;10.50;99.90
32534;DHT22;18973;48.580;8.912;2022-12-26T12:28:43;10.30;99.90
32534;DHT22;18973;48.580;8.912;2022-12-26T12:34:00;10.30;99.90
32534;DHT22;18973;48.580;8.912;2022-12-26T12:36:51;10.30;99.90
32534;DHT22;18973;48.580;8.912;2022-12-26T12:39:31;10.30;99.90
32534;DHT22;18973;48.580;8.912;2022-12-26T12:42:16;10.20;99.90
32534;DHT22;18973;48.580;8.912;2022-12-26T12:58:19;10.20;99.90
32534;DHT22;18973;48.580;8.912;2022-12-26T13:01:00;10.20;99.90
32534;DHT22;18973;48.580;8.912;2022-12-26T13:03:47;10.20;99.90
32534;DHT22;18973;48.580;8.912;2022-12-26T13:06:23;10.20;99.90
32534;DHT22;18973;48.580;8.912;2022-12-26T13:09:06;10.20;99.90
32534;DHT22;18973;48.580;8.912;2022-12-26T13:12:24;10.20;99.90
32534;DHT22;18973;48.580;8.912;2022-12-26T13:15:00;10.20;99.90
32534;DHT22;18973;48.580;8.912;2022-12-26T13:18:06;10.20;99.90
32534;DHT22;18973;48.580;8.912;2022-12-26T13:20:44;10.20;99.90
32534;DHT22;18973;48.580;8.912;2022-12-26T13:23:17;10.20;99.90
32534;DHT22;18973;48.580;8.912;2022-12-26T13:26:07;10.20;99.90
32534;DHT22;18973;48.580;8.912;2022-12-26T13:28:39;10.20;99.90
32534;DHT22;18973;48.580;8.912;2022-12-26T13:31:08;10.20;99.90
32534;DHT22;18973;48.580;8.912;2022-12-26T13:33:34;10.30;99.90
32534;DHT22;18973;48.580;8.912;2022-12-26T13:36:07;10.30;99.90
32534;DHT22;18973;48.580;8.912;2022-12-26T13:41:20;10.20;99.90
32534;DHT22;18973;48.580;8.912;2022-12-26T13:44:06;10.20;99.90
32534;DHT22;18973;48.580;8.912;2022-12-26T13:51:52;10.10;99.90
32534;DHT22;18973;48.580;8.912;2022-12-26T13:54:20;10.20;99.90
32534;DHT22;18973;48.580;8.912;2022-12-26T13:57:03;10.10;99.90
32534;DHT22;18973;48.580;8.912;2022-12-26T13:59:37;10.20;99.90
32534;DHT22;18973;48.580;8.912;2022-12-26T14:06:02;10.10;99.90
32534;DHT22;18973;48.580;8.912;2022-12-26T14:11:00;10.20;99.90
32534;DHT22;18973;48.580;8.912;2022-12-26T14:24:17;10.10;99.90
32534;DHT22;18973;48.580;8.912;2022-12-26T14:29:38;10.10;99.90
32534;DHT22;18973;48.580;8.912;2022-12-26T14:37:40;10.00;99.90
32534;DHT22;18973;48.580;8.912;2022-12-26T14:40:19;10.00;99.90
32534;DHT22;18973;48.580;8.912;2022-12-26T14:45:47;10.00;99.90
32534;DHT22;18973;48.580;8.912;2022-12-26T14:53:33;9.90;99.90
32534;DHT22;18973;48.580;8.912;2022-12-26T14:58:45;9.80;99.90
32534;DHT22;18973;48.580;8.912;2022-12-26T15:15:25;9.70;99.90
32534;DHT22;18973;48.580;8.912;2022-12-26T15:20:38;9.70;99.90
32534;DHT22;18973;48.580;8.912;2022-12-26T15:23:29;9.70;99.90
32534;DHT22;18973;48.580;8.912;2022-12-26T15:34:54;9.70;99.90
32534;DHT22;18973;48.580;8.912;2022-12-26T15:40:23;9.60;99.90
32534;DHT22;18973;48.580;8.912;2022-12-26T15:48:22;9.70;99.90
32534;DHT22;18973;48.580;8.912;2022-12-26T15:51:15;9.70;99.90
32534;DHT22;18973;48.580;8.912;2022-12-26T15:56:42;9.60;99.90
32534;DHT22;18973;48.580;8.912;2022-12-26T16:01:55;9.70;99.90
32534;DHT22;18973;48.580;8.912;2022-12-26T16:04:37;9.60;99.90
32534;DHT22;18973;48.580;8.912;2022-12-26T16:07:36;9.60;99.90
32534;DHT22;18973;48.580;8.912;2022-12-26T16:10:31;9.60;99.90
32534;DHT22;18973;48.580;8.912;2022-12-26T16:13:20;9.60;99.90
32534;DHT22;18973;48.580;8.912;2022-12-26T16:15:56;9.60;99.90
32534;DHT22;18973;48.580;8.912;2022-12-26T16:18:30;9.60;99.90
32534;DHT22;18973;48.580;8.912;2022-12-26T16:20:59;9.60;99.90
32534;DHT22;18973;48.580;8.912;2022-12-26T16:23:46;9.60;99.90
32534;DHT22;18973;48.580;8.912;2022-12-26T16:26:24;9.60;99.90
32534;DHT22;18973;48.580;8.912;2022-12-26T16:28:55;9.60;99.90
32534;DHT22;18973;48.580;8.912;2022-12-26T16:31:25;9.50;99.90
32534;DHT22;18973;48.580;8.912;2022-12-26T16:33:53;9.40;99.90
32534;DHT22;18973;48.580;8.912;2022-12-26T16:36:23;9.40;99.90
32534;DHT22;18973;48.580;8.912;2022-12-26T16:38:50;9.50;99.90
32534;DHT22;18973;48.580;8.912;2022-12-26T16:41:26;9.40;99.90
32534;DHT22;18973;48.580;8.912;2022-12-26T16:43:53;9.40;99.90
32534;DHT22;18973;48.580;8.912;2022-12-26T16:46:22;9.40;99.90
32534;DHT22;18973;48.580;8.912;2022-12-26T16:48:57;9.30;99.90
32534;DHT22;18973;48.580;8.912;2022-12-26T16:51:45;9.40;99.90
32534;DHT22;18973;48.580;8.912;2022-12-26T16:56:52;9.40;99.90
32534;DHT22;18973;48.580;8.912;2022-12-26T16:59:18;9.40;99.90
32534;DHT22;18973;48.580;8.912;2022-12-26T17:01:58;9.50;99.90
32534;DHT22;18973;48.580;8.912;2022-12-26T17:04:27;9.40;99.90
32534;DHT22;18973;48.580;8.912;2022-12-26T17:07:05;9.40;99.90
32534;DHT22;18973;48.580;8.912;2022-12-26T17:09:40;9.40;99.90
32534;DHT22;18973;48.580;8.912;2022-12-26T17:12:35;9.20;99.90
32534;DHT22;18973;48.580;8.912;2022-12-26T17:15:03;9.20;99.90
32534;DHT22;18973;48.580;8.912;2022-12-26T17:17:34;9.20;99.90
32534;DHT22;18973;48.580;8.912;2022-12-26T17:22:52;9.30;99.90
32534;DHT22;18973;48.580;8.912;2022-12-26T17:25:25;9.30;99.90
32534;DHT22;18973;48.580;8.912;2022-12-26T17:30:44;9.40;99.90
32534;DHT22;18973;48.580;8.912;2022-12-26T17:33:27;9.30;99.90
32534;DHT22;18973;48.580;8.912;2022-12-26T17:36:00;9.30;99.90
32534;DHT22;18973;48.580;8.912;2022-12-26T17:38:28;9.30;99.90
32534;DHT22;18973;48.580;8.912;2022-12-26T17:40:56;9.30;99.90
32534;DHT22;18973;48.580;8.912;2022-12-26T17:43:31;9.30;99.90
32534;DHT22;18973;48.580;8.912;2022-12-26T17:45:57;9.20;99.90
32534;DHT22;18973;48.580;8.912;2022-12-26T17:48:23;9.20;99.90
32534;DHT22;18973;48.580;8.912;2022-12-26T17:50:54;9.10;99.90
32534;DHT22;18973;48.580;8.912;2022-12-26T17:56:00;9.00;99.90
32534;DHT22;18973;48.580;8.912;2022-12-26T17:58:27;9.00;99.90
32534;DHT22;18973;48.580;8.912;2022-12-26T18:00:53;9.10;99.90
32534;DHT22;18973;48.580;8.912;2022-12-26T18:03:19;9.10;99.90
32534;DHT22;18973;48.580;8.912;2022-12-26T18:05:46;9.00;99.90
32534;DHT22;18973;48.580;8.912;2022-12-26T18:08:35;9.20;99.90
32534;DHT22;18973;48.580;8.912;2022-12-26T18:11:03;9.20;99.90
32534;DHT22;18973;48.580;8.912;2022-12-26T18:13:29;9.30;99.90
32534;DHT22;18973;48.580;8.912;2022-12-26T18:15:55;9.30;99.90
32534;DHT22;18973;48.580;8.912;2022-12-26T18:18:40;9.20;99.90
32534;DHT22;18973;48.580;8.912;2022-12-26T18:21:09;9.10;99.90
32534;DHT22;18973;48.580;8.912;2022-12-26T18:23:35;8.90;99.90
32534;DHT22;18973;48.580;8.912;2022-12-26T18:26:06;8.70;99.90
32534;DHT22;18973;48.580;8.912;2022-12-26T18:28:33;8.70;99.90
32534;DHT22;18973;48.580;8.912;2022-12-26T18:30:59;8.60;99.90
32534;DHT22;18973;48.580;8.912;2022-12-26T18:33:25;8.40;99.90
32534;DHT22;18973;48.580;8.912;2022-12-26T18:35:51;8.40;99.90
32534;DHT22;18973;48.580;8.912;2022-12-26T18:38:19;8.30;99.90
32534;DHT22;18973;48.580;8.912;2022-12-26T18:40:48;8.20;99.90
32534;DHT22;18973;48.580;8.912;2022-12-26T18:43:14;8.30;99.90
32534;DHT22;18973;48.580;8.912;2022-12-26T18:45:41;8.30;99.90
32534;DHT22;18973;48.580;8.912;2022-12-26T18:48:12;8.20;99.90
32534;DHT22;18973;48.580;8.912;2022-12-26T18:50:38;8.20;99.90
32534;DHT22;18973;48.580;8.912;2022-12-26T18:53:03;8.20;99.90
32534;DHT22;18973;48.580;8.912;2022-12-26T18:55:29;8.20;99.90
32534;DHT22;18973;48.580;8.912;2022-12-26T18:57:55;8.20;99.90
32534;DHT22;18973;48.580;8.912;2022-12-26T19:00:22;8.20;99.90
32534;DHT22;18973;48.580;8.912;2022-12-26T19:02:48;8.20;99.90
32534;DHT22;18973;48.580;8.912;2022-12-26T19:05:17;8.20;99.90
32534;DHT22;18973;48.580;8.912;2022-12-26T19:07:43;8.30;99.90
32534;DHT22;18973;48.580;8.912;2022-12-26T19:10:10;8.40;99.90
32534;DHT22;18973;48.580;8.912;2022-12-26T19:12:36;8.40;99.90
32534;DHT22;18973;48.580;8.912;2022-12-26T19:15:02;8.50;99.90
32534;DHT22;18973;48.580;8.912;2022-12-26T19:17:27;8.50;99.90
32534;DHT22;18973;48.580;8.912;2022-12-26T19:19:53;8.50;99.90
32534;DHT22;18973;48.580;8.912;2022-12-26T19:22:19;8.50;99.90
32534;DHT22;18973;48.580;8.912;2022-12-26T19:24:45;8.50;99.90
32534;DHT22;18973;48.580;8.912;2022-12-26T19:27:10;8.50;99.90
32534;DHT22;18973;48.580;8.912;2022-12-26T19:29:36;8.40;99.90
32534;DHT22;18973;48.580;8.912;2022-12-26T19:32:02;8.50;99.90
32534;DHT22;18973;48.580;8.912;2022-12-26T19:34:28;8.40;99.90
32534;DHT22;18973;48.580;8.912;2022-12-26T19:36:54;8.30;99.90
32534;DHT22;18973;48.580;8.912;2022-12-26T19:39:19;8.30;99.90
32534;DHT22;18973;48.580;8.912;2022-12-26T19:41:46;8.30;99.90
32534;DHT22;18973;48.580;8.912;2022-12-26T19:44:12;8.40;99.90
32534;DHT22;18973;48.580;8.912;2022-12-26T19:46:38;8.20;99.90